Time;durP1;ratioP1;P1;durP2;ratioP2;P2;SDS_P1;SDS_P2;PMS_P1;PMS_P2;Temp;Humidity;BMP_temperature;BMP_pressure;BME280_temperature;BME280_humidity;BME280_pressure;Samples;Min_cycle;Max_cycle;Signal;HPM_P1;HPM_P2
2023/03/09 00:02:09;;;;;;;15.05;8.88;;;2.20;99.90;;;;;;5050241;28;20607;-64
2023/03/09 00:04:35;;;;;;;12.27;7.95;;;2.20;99.90;;;;;;5049597;28;20053;-64
2023/03/09 00:07:01;;;;;;;13.68;7.93;;;2.20;99.90;;;;;;5049188;28;20129;-64
2023/03/09 00:09:27;;;;;;;15.15;7.75;;;2.10;99.90;;;;;;5050889;28;20045;-64
2023/03/09 00:11:53;;;;;;;12.93;8.50;;;2.10;99.90;;;;;;5050542;28;20033;-64
2023/03/09 00:14:21;;;;;;;15.18;8.68;;;2.10;99.90;;;;;;5050783;28;20048;-64
2023/03/09 00:16:47;;;;;;;14.10;7.97;;;2.10;99.90;;;;;;5049726;28;20041;-64
2023/03/09 00:19:20;;;;;;;11.50;7.45;;;2.10;99.90;;;;;;5049296;28;20073;-64
2023/03/09 00:21:51;;;;;;;11.38;6.78;;;2.10;99.90;;;;;;5049508;28;20037;-64
2023/03/09 00:24:26;;;;;;;12.15;7.05;;;2.10;99.90;;;;;;5050593;28;20399;-64
2023/03/09 00:26:57;;;;;;;11.30;6.95;;;2.00;99.90;;;;;;5049040;28;20455;-64
2023/03/09 00:29:25;;;;;;;11.30;7.30;;;2.00;99.90;;;;;;5049419;28;20402;-64
2023/03/09 00:31:51;;;;;;;14.85;7.78;;;2.00;99.90;;;;;;5049193;28;20052;-64
2023/03/09 00:34:18;;;;;;;12.57;7.72;;;2.00;99.90;;;;;;5048422;28;20053;-64
2023/03/09 00:36:44;;;;;;;12.50;7.88;;;2.00;99.90;;;;;;5082522;28;20044;-64
2023/03/09 00:39:11;;;;;;;10.93;7.25;;;2.00;99.90;;;;;;5049269;28;20025;-64
2023/03/09 00:41:37;;;;;;;12.15;7.43;;;2.00;99.90;;;;;;5049800;28;20135;-64
2023/03/09 00:44:04;;;;;;;14.63;8.15;;;2.00;99.90;;;;;;5049261;28;20045;-64
2023/03/09 00:46:31;;;;;;;12.98;8.32;;;2.00;99.90;;;;;;5049004;28;20482;-64
2023/03/09 00:48:57;;;;;;;11.43;7.00;;;2.00;99.90;;;;;;5064999;28;20045;-64
2023/03/09 00:51:23;;;;;;;14.60;8.07;;;1.90;99.90;;;;;;5065887;28;20138;-64
2023/03/09 00:53:49;;;;;;;14.50;8.77;;;1.90;99.90;;;;;;5049472;28;20033;-64
2023/03/09 00:56:18;;;;;;;11.73;7.53;;;1.90;99.90;;;;;;5049019;28;20048;-64
2023/03/09 00:58:44;;;;;;;12.82;8.15;;;1.90;99.90;;;;;;5048578;28;20036;-64
2023/03/09 01:01:12;;;;;;;12.48;8.07;;;1.90;99.90;;;;;;5048319;28;20040;-64
2023/03/09 01:03:38;;;;;;;12.60;8.43;;;1.90;99.90;;;;;;5048499;28;20520;-64
2023/03/09 01:06:05;;;;;;;12.57;8.50;;;1.80;99.90;;;;;;5049940;28;20037;-64
2023/03/09 01:08:32;;;;;;;16.63;8.88;;;1.80;99.90;;;;;;5047856;28;20044;-64
2023/03/09 01:10:58;;;;;;;16.25;8.45;;;1.80;99.90;;;;;;5049877;28;20095;-64
2023/03/09 01:13:23;;;;;;;14.27;8.45;;;1.70;99.90;;;;;;5048248;28;20076;-64
2023/03/09 01:15:49;;;;;;;14.10;8.68;;;1.70;99.90;;;;;;5081655;28;20128;-64
2023/03/09 01:18:15;;;;;;;14.07;8.63;;;1.70;99.90;;;;;;5049634;28;20560;-64
2023/03/09 01:20:41;;;;;;;14.98;9.07;;;1.60;99.90;;;;;;5048786;28;20064;-64
2023/03/09 01:23:07;;;;;;;16.77;9.15;;;1.60;99.90;;;;;;5047686;28;20515;-64
2023/03/09 01:25:34;;;;;;;15.00;9.57;;;1.60;99.90;;;;;;5049588;28;20048;-64
2023/03/09 01:27:59;;;;;;;12.43;7.30;;;1.50;99.90;;;;;;5049516;28;20080;-64
2023/03/09 01:30:25;;;;;;;12.35;8.65;;;1.60;99.90;;;;;;5047554;28;20473;-64
2023/03/09 01:32:51;;;;;;;13.48;8.25;;;1.50;99.90;;;;;;5048053;28;20485;-64
2023/03/09 01:35:17;;;;;;;12.98;8.20;;;1.50;99.90;;;;;;5048064;28;20075;-64
2023/03/09 01:37:42;;;;;;;13.23;7.88;;;1.50;99.90;;;;;;5047445;28;20036;-64
2023/03/09 01:40:17;;;;;;;14.43;8.90;;;1.50;99.90;;;;;;5048074;28;20040;-64
2023/03/09 01:42:42;;;;;;;13.13;8.23;;;1.50;99.90;;;;;;5047544;28;20044;-64
2023/03/09 01:45:20;;;;;;;12.60;8.63;;;1.50;99.90;;;;;;5049503;28;20037;-64
2023/03/09 01:47:46;;;;;;;14.95;9.20;;;1.50;99.90;;;;;;5047894;28;20091;-64
2023/03/09 01:50:15;;;;;;;13.10;8.82;;;1.50;99.90;;;;;;5048724;28;20044;-64
2023/03/09 01:52:44;;;;;;;16.23;9.23;;;1.50;99.90;;;;;;5049241;28;20047;-64
2023/03/09 01:55:13;;;;;;;16.88;9.70;;;1.50;99.90;;;;;;5049123;28;20083;-64
2023/03/09 01:57:53;;;;;;;15.18;9.93;;;1.50;99.90;;;;;;5047271;28;20128;-64
2023/03/09 02:00:24;;;;;;;17.35;11.25;;;1.50;99.90;;;;;;5047827;28;20044;-64
2023/03/09 02:02:58;;;;;;;15.90;9.77;;;1.50;99.90;;;;;;5049132;28;20504;-64
2023/03/09 02:05:50;;;;;;;17.20;9.38;;;1.50;99.90;;;;;;5047547;28;20371;-64
2023/03/09 02:08:18;;;;;;;15.15;9.98;;;1.50;99.90;;;;;;5047439;28;20052;-64
2023/03/09 02:10:52;;;;;;;18.73;11.10;;;1.50;99.90;;;;;;5048449;28;20041;-64
2023/03/09 02:13:21;;;;;;;17.92;10.00;;;1.40;99.90;;;;;;5049015;28;20052;-64
2023/03/09 02:15:48;;;;;;;17.73;10.88;;;1.40;99.90;;;;;;5048909;28;20037;-64
2023/03/09 02:18:13;;;;;;;18.63;11.52;;;1.40;99.90;;;;;;5048582;28;20307;-64
2023/03/09 02:20:56;;;;;;;19.23;11.70;;;1.40;99.90;;;;;;5048823;28;20393;-64
2023/03/09 02:23:43;;;;;;;20.05;12.07;;;1.40;99.90;;;;;;5047915;28;20409;-64
2023/03/09 02:26:30;;;;;;;19.13;11.70;;;1.40;99.90;;;;;;5048678;28;20056;-64
2023/03/09 02:28:56;;;;;;;19.77;12.07;;;1.40;99.90;;;;;;5053143;28;20044;-64
2023/03/09 02:31:22;;;;;;;17.88;11.23;;;1.40;99.90;;;;;;5051419;28;20567;-64
2023/03/09 02:33:47;;;;;;;21.15;12.45;;;1.40;99.90;;;;;;5050784;28;20110;-64
2023/03/09 02:36:13;;;;;;;22.80;12.93;;;1.30;99.90;;;;;;5051411;28;20044;-64
2023/03/09 02:38:39;;;;;;;22.27;13.13;;;1.30;99.90;;;;;;5051314;28;20048;-64
2023/03/09 02:41:10;;;;;;;20.08;12.13;;;1.30;99.90;;;;;;5050970;28;20079;-64
2023/03/09 02:43:43;;;;;;;22.15;13.55;;;1.30;99.90;;;;;;5051347;28;20604;-64
2023/03/09 02:46:09;;;;;;;22.60;14.23;;;1.30;99.90;;;;;;5050860;28;20484;-64
2023/03/09 02:48:35;;;;;;;24.70;15.10;;;1.30;99.90;;;;;;5051135;28;20094;-64
2023/03/09 02:51:01;;;;;;;27.50;14.98;;;1.30;99.90;;;;;;5051127;28;20052;-64
2023/03/09 02:53:26;;;;;;;24.08;14.00;;;1.30;99.90;;;;;;5050452;28;20049;-64
2023/03/09 02:55:52;;;;;;;26.42;15.13;;;1.20;99.90;;;;;;5051424;28;20044;-64
2023/03/09 02:58:18;;;;;;;23.42;15.40;;;1.20;99.90;;;;;;5052451;28;20090;-64
2023/03/09 03:00:44;;;;;;;22.65;13.90;;;1.20;99.90;;;;;;5050350;28;20490;-64
2023/03/09 03:03:10;;;;;;;23.15;13.85;;;1.10;99.90;;;;;;5050956;28;20127;-64
2023/03/09 03:05:35;;;;;;;24.83;14.73;;;1.10;99.90;;;;;;5050812;28;20048;-64
2023/03/09 03:08:01;;;;;;;24.45;13.95;;;1.10;99.90;;;;;;5050495;28;20043;-64
2023/03/09 03:10:27;;;;;;;22.98;13.65;;;1.10;99.90;;;;;;5052254;28;20485;-64
2023/03/09 03:12:53;;;;;;;23.13;13.57;;;1.10;99.90;;;;;;5050945;28;20120;-64
2023/03/09 03:15:18;;;;;;;19.25;12.43;;;1.10;99.90;;;;;;5050164;28;20070;-64
2023/03/09 03:17:44;;;;;;;20.85;12.63;;;1.10;99.90;;;;;;5052153;28;20037;-63
2023/03/09 03:20:13;;;;;;;20.25;12.20;;;1.10;99.90;;;;;;5052182;28;20033;-64
2023/03/09 03:22:39;;;;;;;21.35;12.70;;;1.10;99.90;;;;;;5051321;28;20405;-65
2023/03/09 03:25:07;;;;;;;21.73;12.52;;;1.10;99.90;;;;;;5052086;28;20033;-65
2023/03/09 03:27:33;;;;;;;19.73;12.45;;;1.10;99.90;;;;;;5051885;28;20047;-64
2023/03/09 03:30:00;;;;;;;24.60;12.77;;;1.10;99.90;;;;;;5050121;28;20131;-64
2023/03/09 03:32:26;;;;;;;22.20;12.23;;;1.10;99.90;;;;;;5067089;28;20512;-64
2023/03/09 03:34:52;;;;;;;18.92;11.00;;;1.10;99.90;;;;;;5049647;28;20528;-64
2023/03/09 03:37:18;;;;;;;20.83;12.45;;;1.10;99.90;;;;;;5048962;28;20033;-64
2023/03/09 03:39:43;;;;;;;21.08;13.27;;;1.00;99.90;;;;;;5051486;28;20032;-64
2023/03/09 03:42:09;;;;;;;18.35;11.25;;;1.00;99.90;;;;;;5049872;28;20036;-64
2023/03/09 03:44:35;;;;;;;23.05;12.85;;;1.00;99.90;;;;;;5051859;28;20409;-64
2023/03/09 03:47:01;;;;;;;17.35;11.27;;;0.90;99.90;;;;;;5051516;28;20040;-64
2023/03/09 03:49:27;;;;;;;18.92;11.65;;;0.90;99.90;;;;;;5049466;28;20409;-64
2023/03/09 03:51:53;;;;;;;22.73;13.23;;;0.90;99.90;;;;;;5051562;28;20072;-64
2023/03/09 03:54:19;;;;;;;19.23;12.68;;;0.80;99.90;;;;;;5051384;28;20041;-64
2023/03/09 03:56:45;;;;;;;18.30;11.40;;;0.80;99.90;;;;;;5049729;28;20059;-64
2023/03/09 03:59:10;;;;;;;19.90;11.48;;;0.80;99.90;;;;;;5049970;28;20452;-64
2023/03/09 04:01:36;;;;;;;20.08;11.82;;;0.90;99.90;;;;;;5049965;28;20033;-64
2023/03/09 04:04:03;;;;;;;20.10;12.15;;;0.90;99.90;;;;;;5065840;28;20045;-64
2023/03/09 04:06:29;;;;;;;19.80;11.23;;;0.90;99.90;;;;;;5051045;28;20045;-64
2023/03/09 04:08:54;;;;;;;17.73;10.98;;;0.90;99.90;;;;;;5049930;28;20044;-64
2023/03/09 04:11:20;;;;;;;18.83;11.65;;;1.00;99.90;;;;;;5050509;28;20041;-64
2023/03/09 04:13:50;;;;;;;19.50;11.98;;;1.00;99.90;;;;;;5049555;28;20047;-64
2023/03/09 04:16:16;;;;;;;20.13;11.65;;;1.00;99.90;;;;;;5050812;28;20037;-64
2023/03/09 04:18:43;;;;;;;21.83;12.18;;;1.00;99.90;;;;;;5049079;28;20298;-64
2023/03/09 04:21:08;;;;;;;20.88;12.50;;;1.00;99.90;;;;;;5050947;28;20044;-64
2023/03/09 04:23:34;;;;;;;17.35;11.40;;;1.00;99.90;;;;;;5049471;28;20445;-64
2023/03/09 04:26:03;;;;;;;20.95;11.73;;;1.00;99.90;;;;;;5050088;28;20048;-64
2023/03/09 04:28:29;;;;;;;20.05;11.52;;;1.00;99.90;;;;;;5049477;28;20049;-64
2023/03/09 04:30:56;;;;;;;25.10;13.20;;;1.10;99.90;;;;;;5048683;28;20071;-65
2023/03/09 04:33:22;;;;;;;20.55;12.80;;;1.10;99.90;;;;;;5050320;28;20043;-64
2023/03/09 04:35:48;;;;;;;23.15;12.95;;;1.10;99.90;;;;;;5049376;28;20052;-64
2023/03/09 04:38:14;;;;;;;21.13;12.68;;;1.10;99.90;;;;;;5048544;28;20402;-64
2023/03/09 04:40:40;;;;;;;21.60;12.25;;;1.00;99.90;;;;;;5050327;28;20040;-64
2023/03/09 04:43:07;;;;;;;22.15;11.63;;;1.10;99.90;;;;;;5050418;28;20041;-64
2023/03/09 04:45:33;;;;;;;25.40;12.98;;;1.00;99.90;;;;;;5048633;28;20394;-64
2023/03/09 04:47:59;;;;;;;24.35;13.13;;;1.00;99.90;;;;;;5048785;28;20051;-64
2023/03/09 04:50:25;;;;;;;20.00;12.07;;;1.10;99.90;;;;;;5048732;28;20041;-64
2023/03/09 04:52:51;;;;;;;21.77;12.65;;;1.10;99.90;;;;;;5048203;28;20498;-64
2023/03/09 04:55:17;;;;;;;19.52;11.43;;;1.10;99.90;;;;;;5048839;28;20048;-64
2023/03/09 04:57:44;;;;;;;20.80;12.63;;;1.10;99.90;;;;;;5048966;28;20037;-64
2023/03/09 05:00:11;;;;;;;23.17;13.70;;;1.10;99.90;;;;;;5049435;28;20083;-64
2023/03/09 05:02:41;;;;;;;22.40;13.85;;;1.10;99.90;;;;;;5049932;28;20037;-64
2023/03/09 05:05:08;;;;;;;17.65;10.10;;;1.10;99.90;;;;;;5050092;28;20048;-64
2023/03/09 05:07:34;;;;;;;21.17;12.27;;;1.10;99.90;;;;;;5048263;28;20436;-64
2023/03/09 05:10:00;;;;;;;21.60;13.18;;;1.10;99.90;;;;;;5048752;28;20389;-64
2023/03/09 05:12:31;;;;;;;22.73;13.60;;;1.10;99.90;;;;;;5049866;28;20207;-64
2023/03/09 05:15:00;;;;;;;23.60;13.70;;;1.10;99.90;;;;;;5049152;28;20505;-64
2023/03/09 05:17:26;;;;;;;24.25;14.60;;;1.00;99.90;;;;;;5048644;28;20045;-64
2023/03/09 05:19:52;;;;;;;22.67;13.18;;;1.10;99.90;;;;;;5049439;28;20493;-64
2023/03/09 05:22:18;;;;;;;20.92;12.80;;;1.00;99.90;;;;;;5049761;28;20068;-64
2023/03/09 05:24:44;;;;;;;23.20;12.60;;;1.00;99.90;;;;;;5049461;28;20052;-64
2023/03/09 05:27:12;;;;;;;23.10;13.15;;;1.00;99.90;;;;;;5049095;28;20072;-64
2023/03/09 05:29:38;;;;;;;25.65;13.95;;;1.00;99.90;;;;;;5049439;28;20497;-64
2023/03/09 05:32:05;;;;;;;24.27;13.57;;;1.00;99.90;;;;;;5048158;28;20091;-64
2023/03/09 05:34:31;;;;;;;22.50;13.63;;;1.00;99.90;;;;;;5048933;28;20041;-64
2023/03/09 05:36:57;;;;;;;22.40;13.38;;;1.00;99.90;;;;;;5049395;28;20041;-64
2023/03/09 05:39:22;;;;;;;24.88;14.27;;;1.00;99.90;;;;;;5048060;28;20044;-64
2023/03/09 05:41:48;;;;;;;25.13;13.95;;;1.00;99.90;;;;;;5048771;28;20029;-64
2023/03/09 05:44:14;;;;;;;23.30;13.38;;;1.00;99.90;;;;;;5047940;28;20048;-67
2023/03/09 05:46:40;;;;;;;23.88;13.80;;;1.10;99.90;;;;;;5049248;28;20041;-67
2023/03/09 05:49:06;;;;;;;24.60;14.05;;;1.00;99.90;;;;;;5048695;28;20122;-67
2023/03/09 05:51:31;;;;;;;23.27;13.77;;;1.00;99.90;;;;;;5064777;28;20045;-67
2023/03/09 05:53:57;;;;;;;24.77;14.27;;;1.10;99.90;;;;;;5047878;28;20048;-67
2023/03/09 05:56:23;;;;;;;23.83;13.43;;;1.10;99.90;;;;;;5047572;28;20041;-67
2023/03/09 05:58:50;;;;;;;22.95;13.63;;;1.10;99.90;;;;;;5049162;28;20392;-67
2023/03/09 06:01:25;;;;;;;22.25;14.40;;;1.10;99.90;;;;;;5047289;28;20493;-67
2023/03/09 06:03:52;;;;;;;26.38;15.15;;;1.10;99.90;;;;;;5048604;28;20080;-67
2023/03/09 06:06:18;;;;;;;25.02;13.95;;;1.10;99.90;;;;;;5049019;28;20044;-67
2023/03/09 06:08:44;;;;;;;27.58;14.90;;;1.10;99.90;;;;;;5048447;28;20048;-67
2023/03/09 06:11:10;;;;;;;28.40;15.30;;;1.10;99.90;;;;;;5047664;28;20037;-67
2023/03/09 06:13:37;;;;;;;27.30;16.05;;;1.10;99.90;;;;;;5049060;28;20397;-67
2023/03/09 06:16:04;;;;;;;23.88;14.05;;;1.10;99.90;;;;;;5048390;28;20040;-67
2023/03/09 06:18:31;;;;;;;25.10;15.10;;;1.10;99.90;;;;;;5048907;28;20068;-67
2023/03/09 06:21:05;;;;;;;27.05;14.98;;;1.10;99.90;;;;;;5049372;28;20044;-67
2023/03/09 06:23:32;;;;;;;24.90;14.48;;;1.10;99.90;;;;;;5048200;28;20460;-67
2023/03/09 06:25:58;;;;;;;29.60;15.90;;;1.10;99.90;;;;;;5048815;28;20087;-67
2023/03/09 06:28:24;;;;;;;26.73;14.23;;;1.10;99.90;;;;;;5047604;28;20045;-67
2023/03/09 06:30:50;;;;;;;30.55;16.95;;;1.20;99.90;;;;;;5047100;28;20052;-67
2023/03/09 06:33:16;;;;;;;26.67;15.75;;;1.20;99.90;;;;;;5047562;28;20405;-67
2023/03/09 06:35:42;;;;;;;28.92;17.45;;;1.20;99.90;;;;;;5048822;28;20041;-67
2023/03/09 06:38:08;;;;;;;34.38;17.08;;;1.20;99.90;;;;;;5046670;28;20064;-67
2023/03/09 06:40:34;;;;;;;28.50;15.70;;;1.20;99.90;;;;;;5048666;28;20044;-67
2023/03/09 06:43:00;;;;;;;29.15;15.35;;;1.20;99.90;;;;;;5047358;28;20098;-68
2023/03/09 06:45:26;;;;;;;29.35;15.85;;;1.30;99.90;;;;;;5048258;28;20367;-68
2023/03/09 06:47:56;;;;;;;29.55;16.80;;;1.30;99.90;;;;;;5047612;28;20067;-68
2023/03/09 06:50:23;;;;;;;31.20;16.80;;;1.40;99.90;;;;;;5047178;28;20045;-68
2023/03/09 06:52:49;;;;;;;30.33;15.70;;;1.40;99.90;;;;;;5045869;28;20512;-68
2023/03/09 06:55:15;;;;;;;29.95;16.65;;;1.50;99.90;;;;;;5050356;28;20033;-68
2023/03/09 06:57:42;;;;;;;30.15;16.90;;;1.50;99.90;;;;;;5048771;28;20561;-68
2023/03/09 07:00:09;;;;;;;27.63;14.88;;;1.60;99.90;;;;;;5048877;28;20048;-67
2023/03/09 07:02:36;;;;;;;28.88;17.13;;;1.60;99.90;;;;;;5066916;28;20048;-67
2023/03/09 07:05:02;;;;;;;27.70;15.68;;;1.60;99.90;;;;;;5067946;28;20197;-67
2023/03/09 07:07:28;;;;;;;28.33;15.52;;;1.70;99.90;;;;;;5068259;28;20513;-67
2023/03/09 07:09:54;;;;;;;27.65;16.83;;;1.70;99.90;;;;;;5068331;28;20049;-67
2023/03/09 07:12:19;;;;;;;33.08;17.05;;;1.80;99.90;;;;;;5067999;28;20090;-68
2023/03/09 07:14:45;;;;;;;28.92;16.08;;;1.80;99.90;;;;;;5054484;28;20041;-68
2023/03/09 07:17:13;;;;;;;27.33;15.75;;;1.80;99.90;;;;;;5070635;28;20147;-67
2023/03/09 07:19:39;;;;;;;27.27;15.48;;;1.80;99.90;;;;;;5069864;28;20051;-67
2023/03/09 07:22:06;;;;;;;29.38;15.85;;;1.80;99.90;;;;;;5070589;28;20028;-67
2023/03/09 07:24:34;;;;;;;27.55;15.82;;;1.90;99.90;;;;;;5069414;28;20052;-67
2023/03/09 07:27:00;;;;;;;25.20;15.55;;;1.90;99.90;;;;;;5068945;28;20043;-67
2023/03/09 07:29:26;;;;;;;25.00;14.57;;;1.90;99.90;;;;;;5071669;28;20427;-67
2023/03/09 07:31:52;;;;;;;24.20;14.07;;;2.00;99.90;;;;;;5045632;28;20087;-67
2023/03/09 07:34:18;;;;;;;28.25;15.80;;;2.10;99.90;;;;;;5049800;28;20056;-67
2023/03/09 07:36:43;;;;;;;23.83;13.90;;;2.10;99.90;;;;;;5051382;28;20045;-67
2023/03/09 07:39:10;;;;;;;24.85;14.50;;;2.30;99.90;;;;;;5050454;28;20029;-67
2023/03/09 07:41:36;;;;;;;30.90;18.63;;;2.40;99.90;;;;;;5050873;28;20045;-67
2023/03/09 07:44:01;;;;;;;30.27;17.23;;;2.40;99.90;;;;;;5050123;28;20043;-67
2023/03/09 07:46:27;;;;;;;24.08;13.45;;;2.40;99.90;;;;;;5050452;28;20052;-67
2023/03/09 07:48:53;;;;;;;22.60;12.32;;;2.40;99.90;;;;;;5049433;28;20060;-67
2023/03/09 07:51:19;;;;;;;22.05;15.65;;;2.30;99.90;;;;;;5033384;28;20053;-67
2023/03/09 07:53:45;;;;;;;24.33;15.75;;;2.30;99.90;;;;;;5049724;28;20045;-67
2023/03/09 07:56:12;;;;;;;22.08;13.98;;;2.30;99.90;;;;;;5051243;28;20047;-67
2023/03/09 07:58:39;;;;;;;37.72;20.95;;;2.40;99.90;;;;;;5033333;28;20043;-67
2023/03/09 08:01:07;;;;;;;21.55;13.85;;;2.40;99.90;;;;;;5049466;28;20053;-67
2023/03/09 08:03:35;;;;;;;24.30;14.10;;;2.40;99.90;;;;;;5051358;28;20094;-68
2023/03/09 08:06:05;;;;;;;25.52;15.40;;;2.40;99.90;;;;;;5051296;28;20051;-67
2023/03/09 08:08:31;;;;;;;;;;;2.40;99.90;;;;;;5049859;28;20073;-67
2023/03/09 08:10:57;;;;;;;34.33;20.27;;;2.50;99.90;;;;;;5049807;28;19920;-68
2023/03/09 08:13:24;;;;;;;42.25;26.05;;;2.60;99.90;;;;;;5051074;28;20371;-67
2023/03/09 08:15:51;;;;;;;29.38;18.50;;;2.60;99.90;;;;;;5049655;28;20393;-67
2023/03/09 08:18:18;;;;;;;26.42;15.90;;;2.80;99.90;;;;;;5032988;28;20041;-68
2023/03/09 08:20:44;;;;;;;33.97;21.48;;;2.80;99.90;;;;;;5049568;28;20048;-68
2023/03/09 08:23:11;;;;;;;27.02;16.95;;;2.80;99.90;;;;;;5049519;28;20136;-68
2023/03/09 08:25:37;;;;;;;28.77;16.40;;;2.90;99.90;;;;;;5051934;28;20049;-68
2023/03/09 08:28:04;;;;;;;29.75;19.15;;;2.90;99.90;;;;;;5050594;28;20057;-68
2023/03/09 08:30:30;;;;;;;22.70;14.68;;;3.00;99.90;;;;;;5050059;28;20047;-68
2023/03/09 08:32:57;;;;;;;25.13;15.68;;;3.00;99.90;;;;;;5050616;28;20049;-68
2023/03/09 08:35:27;;;;;;;19.73;13.07;;;3.10;99.90;;;;;;5051800;28;20041;-68
2023/03/09 08:37:52;;;;;;;18.70;11.70;;;3.10;99.90;;;;;;5051316;28;20080;-70
2023/03/09 08:40:18;;;;;;;18.65;11.73;;;3.20;99.90;;;;;;5051964;28;20072;-68
2023/03/09 08:42:44;;;;;;;19.10;11.52;;;3.20;99.90;;;;;;5051619;28;20029;-68
2023/03/09 08:45:11;;;;;;;17.98;12.98;;;3.20;99.90;;;;;;5050340;28;20547;-68
2023/03/09 08:47:37;;;;;;;18.27;12.52;;;3.30;99.90;;;;;;5050733;28;20068;-68
2023/03/09 08:50:03;;;;;;;18.65;11.57;;;3.30;99.90;;;;;;5051354;28;20076;-68
2023/03/09 08:52:34;;;;;;;18.50;13.02;;;3.30;99.90;;;;;;5050388;28;20041;-68
2023/03/09 08:55:01;;;;;;;17.80;11.85;;;3.30;99.90;;;;;;5050151;28;20508;-68
2023/03/09 08:57:27;;;;;;;17.55;9.73;;;3.40;99.90;;;;;;5049765;28;20053;-68
2023/03/09 08:59:53;;;;;;;16.95;11.38;;;3.50;99.90;;;;;;5051651;28;20051;-68
2023/03/09 09:02:19;;;;;;;17.25;11.48;;;3.70;99.90;;;;;;5050109;28;20382;-67
2023/03/09 09:04:45;;;;;;;16.15;10.13;;;3.80;99.90;;;;;;5050252;28;20052;-68
2023/03/09 09:07:13;;;;;;;16.60;11.63;;;4.00;99.90;;;;;;5050361;28;20405;-68
2023/03/09 09:09:39;;;;;;;17.40;9.70;;;4.10;99.90;;;;;;5050049;28;20044;-67
2023/03/09 09:12:05;;;;;;;14.20;10.40;;;4.20;99.90;;;;;;5049389;28;20060;-68
2023/03/09 09:14:32;;;;;;;16.23;10.38;;;4.40;99.90;;;;;;5049715;28;20033;-68
2023/03/09 09:16:58;;;;;;;15.23;10.10;;;4.70;99.90;;;;;;5050100;28;20045;-68
2023/03/09 09:19:24;;;;;;;17.85;11.07;;;4.90;99.90;;;;;;5049850;28;20048;-68
2023/03/09 09:21:52;;;;;;;15.98;10.25;;;4.90;99.90;;;;;;5049958;28;20052;-68
2023/03/09 09:24:18;;;;;;;14.35;9.68;;;4.90;99.90;;;;;;5049390;28;20541;-67
2023/03/09 09:26:45;;;;;;;14.57;9.48;;;4.80;99.90;;;;;;5050357;28;20056;-68
2023/03/09 09:29:11;;;;;;;15.73;9.98;;;4.70;99.90;;;;;;5049386;28;20642;-68
2023/03/09 09:31:38;;;;;;;14.15;9.30;;;4.60;99.90;;;;;;5049500;28;20055;-68
2023/03/09 09:34:04;;;;;;;16.30;9.75;;;4.40;99.90;;;;;;5049522;28;20041;-67
2023/03/09 09:36:30;;;;;;;15.45;10.38;;;4.40;99.90;;;;;;5049838;28;20041;-70
2023/03/09 09:38:57;;;;;;;14.05;10.45;;;4.40;99.90;;;;;;5051128;28;20040;-68
2023/03/09 09:41:28;;;;;;;13.82;9.63;;;4.50;99.90;;;;;;5051222;28;20122;-68
2023/03/09 09:43:59;;;;;;;13.57;9.07;;;4.50;99.90;;;;;;5049877;28;20056;-68
2023/03/09 09:46:26;;;;;;;14.45;8.55;;;4.50;99.90;;;;;;5050923;28;20128;-68
2023/03/09 09:48:52;;;;;;;12.98;8.10;;;4.60;99.90;;;;;;5050205;28;20044;-70
2023/03/09 09:51:43;;;;;;;15.07;9.25;;;4.60;99.90;;;;;;5049725;28;20044;-69
2023/03/09 09:54:20;;;;;;;13.50;8.73;;;4.60;99.90;;;;;;5048454;28;20397;-67
2023/03/09 09:57:00;;;;;;;13.60;9.35;;;4.50;99.90;;;;;;5050171;28;20043;-68
2023/03/09 09:59:32;;;;;;;14.20;8.25;;;4.40;99.90;;;;;;5050019;28;20044;-68
2023/03/09 10:02:11;;;;;;;15.35;9.98;;;4.30;99.90;;;;;;5049357;28;20033;-68
2023/03/09 10:04:50;;;;;;;13.25;8.48;;;4.30;99.90;;;;;;5049496;28;20122;-68
2023/03/09 10:07:19;;;;;;;11.98;8.55;;;4.20;99.90;;;;;;5049118;28;20051;-68
2023/03/09 10:09:56;;;;;;;14.27;8.50;;;4.30;99.90;;;;;;5048173;28;20059;-68
2023/03/09 10:12:22;;;;;;;13.18;7.70;;;4.30;99.90;;;;;;5047995;28;20393;-68
2023/03/09 10:14:52;;;;;;;12.77;8.75;;;4.40;99.90;;;;;;5048663;28;20041;-67
2023/03/09 10:17:39;;;;;;;17.25;9.52;;;4.50;99.90;;;;;;5048123;28;20128;-67
2023/03/09 10:20:25;;;;;;;14.98;10.02;;;4.60;99.90;;;;;;5030861;28;20067;-67
2023/03/09 10:22:54;;;;;;;11.25;7.78;;;4.70;99.90;;;;;;5046937;28;20041;-67
2023/03/09 10:25:22;;;;;;;12.55;7.68;;;4.80;99.90;;;;;;5048906;28;20117;-68
2023/03/09 10:28:01;;;;;;;13.13;9.10;;;4.80;99.90;;;;;;5046872;28;20127;-68
2023/03/09 10:30:48;;;;;;;12.95;8.57;;;4.80;99.90;;;;;;5048863;28;20044;-68
2023/03/09 10:33:28;;;;;;;12.40;7.88;;;4.80;99.90;;;;;;5049963;28;20056;-68
2023/03/09 10:36:07;;;;;;;9.48;6.10;;;4.80;99.90;;;;;;5048417;28;20485;-68
2023/03/09 10:38:36;;;;;;;14.87;9.67;;;4.70;99.90;;;;;;5050122;28;20246;-68
2023/03/09 10:41:02;;;;;;;12.30;7.38;;;4.70;99.90;;;;;;5050186;28;20033;-68
2023/03/09 10:43:34;;;;;;;11.57;8.63;;;4.70;99.90;;;;;;5047947;28;20606;-68
2023/03/09 10:46:23;;;;;;;13.38;8.63;;;4.70;99.90;;;;;;5049776;28;20110;-68
2023/03/09 10:49:08;;;;;;;14.88;9.38;;;4.80;99.90;;;;;;5051738;28;20159;-68
2023/03/09 10:51:38;;;;;;;12.20;8.15;;;4.80;99.90;;;;;;5053688;28;20048;-68
2023/03/09 10:54:26;;;;;;;12.95;9.40;;;4.80;99.90;;;;;;5052162;28;20057;-68
2023/03/09 10:56:52;;;;;;;15.18;9.68;;;4.90;99.90;;;;;;5051407;28;20044;-69
2023/03/09 10:59:25;;;;;;;15.45;9.35;;;4.90;99.90;;;;;;5049963;28;20050;-69
2023/03/09 11:01:53;;;;;;;13.25;8.60;;;5.00;99.90;;;;;;5052275;28;20045;-69
2023/03/09 11:04:22;;;;;;;15.38;10.00;;;5.10;99.90;;;;;;5049266;28;20124;-68
2023/03/09 11:07:03;;;;;;;12.55;9.05;;;5.20;99.90;;;;;;5050955;28;20045;-68
2023/03/09 11:09:29;;;;;;;13.23;9.68;;;5.30;99.90;;;;;;5052271;28;20626;-68
2023/03/09 11:12:15;;;;;;;15.82;10.45;;;5.30;99.90;;;;;;5051175;28;20041;-64
2023/03/09 11:14:53;;;;;;;15.07;9.65;;;5.30;99.90;;;;;;5050310;28;20049;-66
2023/03/09 11:17:28;;;;;;;13.13;8.80;;;5.30;99.90;;;;;;5049855;28;20126;-64
2023/03/09 11:20:31;;;;;;;17.65;9.55;;;5.30;99.90;;;;;;5051701;28;20059;-65
2023/03/09 11:23:25;;;;;;;14.80;9.90;;;5.20;99.90;;;;;;4974255;28;20058;-65
2023/03/09 11:26:18;;;;;;;13.02;9.48;;;5.20;99.90;;;;;;4990391;28;20061;-65
2023/03/09 11:28:47;;;;;;;14.50;9.52;;;5.10;99.90;;;;;;4990677;28;20043;-65
2023/03/09 11:31:19;;;;;;;14.65;9.88;;;5.10;99.90;;;;;;4990045;28;20057;-64
2023/03/09 11:33:48;;;;;;;13.00;8.45;;;5.10;99.90;;;;;;4974115;28;20042;-64
2023/03/09 11:36:19;;;;;;;16.40;10.90;;;5.10;99.90;;;;;;4989584;28;20035;-64
2023/03/09 11:38:47;;;;;;;15.52;10.15;;;5.10;99.90;;;;;;4972639;28;20054;-65
2023/03/09 11:41:26;;;;;;;14.23;10.43;;;5.10;99.90;;;;;;4989692;28;20526;-65
2023/03/09 11:44:05;;;;;;;15.10;10.75;;;5.10;99.90;;;;;;4988877;28;20125;-64
2023/03/09 11:46:32;;;;;;;13.60;9.55;;;4.90;99.90;;;;;;4971310;28;20129;-65
2023/03/09 11:49:07;;;;;;;15.27;9.90;;;4.90;99.90;;;;;;4972059;28;20650;-65
2023/03/09 11:51:44;;;;;;;15.27;10.55;;;4.90;99.90;;;;;;4955728;28;20056;-65
2023/03/09 11:54:21;;;;;;;16.20;10.68;;;4.90;99.90;;;;;;4987934;28;20544;-65
2023/03/09 11:56:48;;;;;;;16.85;11.15;;;4.90;99.90;;;;;;5015500;28;20057;-64
2023/03/09 11:59:17;;;;;;;15.73;10.95;;;4.90;99.90;;;;;;5047995;28;20383;-65
2023/03/09 12:02:22;;;;;;;16.70;11.90;;;4.90;99.90;;;;;;5048538;28;20056;-65
2023/03/09 12:04:51;;;;;;;17.67;10.98;;;5.00;99.90;;;;;;5045368;28;20099;-65
2023/03/09 12:07:38;;;;;;;15.27;9.32;;;5.00;99.90;;;;;;5049039;28;20049;-64
2023/03/09 12:10:12;;;;;;;12.73;8.75;;;5.00;99.90;;;;;;5048348;28;20110;-65
2023/03/09 12:12:55;;;;;;;13.93;9.50;;;5.00;99.90;;;;;;5049560;28;20082;-65
2023/03/09 12:15:35;;;;;;;16.48;10.85;;;5.00;99.90;;;;;;5050136;28;20424;-66
2023/03/09 12:18:06;;;;;;;16.15;10.23;;;5.00;99.90;;;;;;5034109;28;20135;-65
2023/03/09 12:20:41;;;;;;;13.70;8.88;;;4.90;99.90;;;;;;5051450;28;20037;-65
2023/03/09 12:23:34;;;;;;;14.32;9.70;;;4.90;99.90;;;;;;5051564;28;20057;-65
2023/03/09 12:26:02;;;;;;;14.10;8.98;;;4.80;99.90;;;;;;5049995;28;20060;-65
2023/03/09 12:28:29;;;;;;;13.30;9.32;;;4.80;99.90;;;;;;5049704;28;20033;-65
2023/03/09 12:30:57;;;;;;;14.55;9.43;;;4.80;99.90;;;;;;5051571;28;20033;-65
2023/03/09 12:33:41;;;;;;;12.82;9.05;;;4.80;99.90;;;;;;5050751;28;20052;-64
2023/03/09 12:36:30;;;;;;;15.85;9.63;;;4.80;99.90;;;;;;5051199;28;20120;-65
2023/03/09 12:39:29;;;;;;;13.45;9.45;;;4.90;99.90;;;;;;5051855;28;20493;-64
2023/03/09 12:42:01;;;;;;;15.80;10.38;;;4.90;99.90;;;;;;5047797;28;20045;-65
2023/03/09 12:44:50;;;;;;;14.73;9.70;;;4.90;99.90;;;;;;5048528;28;20045;-64
2023/03/09 12:47:36;;;;;;;14.25;9.88;;;4.90;99.90;;;;;;4988252;28;20053;-65
2023/03/09 12:50:05;;;;;;;12.98;8.27;;;5.00;99.90;;;;;;4987447;28;20176;-64
2023/03/09 12:52:54;;;;;;;15.07;9.02;;;5.00;99.90;;;;;;4988618;28;20438;-65